Linus P — V7RA8 — position and weather

sailwx.info

Track history (hours):
 
Tides and Currents Weather Stations Pressure Air Temp Water Temp Dewpoint Dewpoint Depression Visibility Wind Speed Wind Dir Waves Ship Positions

Linus P

Last reported at 2018-Feb-04 14:37 UTC. Time now 2018-Feb-21 19:45 UTC.
Position N 01°13' E 103°30'.
Warning: this ship's position is 17 days out of date.

Length 169 m; draft 9.3 m.

Type: Tanker. MMSI: 538006808.

Date/timePositionNaut miles runAvg speedWind from/ knotsBaromVisibWave heightAir tempDewpointWater temp
2018-Feb-04 14:37N 01°13' E 103°30'214.4
2018-Feb-04 14:29N 01°13' E 103°32'612.8
2018-Feb-04 14:00N 01°12' E 103°38'4 7.9
2018-Feb-04 13:30N 01°12' E 103°41'1 1.0
2018-Feb-04 12:58N 01°12' E 103°42'0 0.1
2018-Feb-04 12:28N 01°12' E 103°42'0 0.0
2018-Feb-04 09:58N 01°12' E 103°42'0 0.0
2018-Feb-04 08:58N 01°12' E 103°42'0 0.1
2018-Feb-04 07:46N 01°12' E 103°42'0 0.0
2018-Feb-04 07:25N 01°12' E 103°42'0 0.0
2018-Feb-04 06:55N 01°12' E 103°42'0 0.0
2018-Feb-04 06:25N 01°12' E 103°42'0 0.0
2018-Feb-04 05:55N 01°12' E 103°42'0 0.1
2018-Feb-04 05:25N 01°12' E 103°42'0 0.1
2018-Feb-04 04:58N 01°12' E 103°42'0 0.0
2018-Feb-04 04:16N 01°12' E 103°42'0 0.1
2018-Feb-04 03:55N 01°12' E 103°42'0 0.0
2018-Feb-04 03:28N 01°12' E 103°42'0 0.0
2018-Feb-04 02:58N 01°12' E 103°42'0 0.0
2018-Feb-04 02:28N 01°12' E 103°42'0 0.0
2018-Feb-04 01:58N 01°12' E 103°42'0 0.0
2018-Feb-04 01:28N 01°12' E 103°42'0 0.0
2018-Feb-04 00:58N 01°12' E 103°42'0 0.0
2018-Feb-04 00:28N 01°12' E 103°42'0 0.0
2018-Feb-03 23:58N 01°12' E 103°42'0 0.1
2018-Feb-03 23:28N 01°12' E 103°42'0 0.0
2018-Feb-03 22:58N 01°12' E 103°42'0 0.5
2018-Feb-03 22:30N 01°11' E 103°42'2 3.2
2018-Feb-03 22:00N 01°11' E 103°40'0 0.4
2018-Feb-03 21:30N 01°11' E 103°40'3 5.8
2018-Feb-03 20:59N 01°09' E 103°43'3 5.6
2018-Feb-03 20:30N 01°09' E 103°45'4 8.0
2018-Feb-03 19:59N 01°11' E 103°49'12 8.0
2018-Feb-03 18:29N 01°16' E 104°00'5 8.9
2018-Feb-03 17:59N 01°16' E 104°05'  
Track history (hours):
 
Tides and Currents Weather Stations Pressure Air Temp Water Temp Dewpoint Dewpoint Depression Visibility Wind Speed Wind Dir Waves Ship Positions

Linus P

Last reported at 2018-Feb-04 14:37 UTC. Time now 2018-Feb-21 19:45 UTC.
Position N 01°13' E 103°30'.
Warning: this ship's position is 17 days out of date.

Length 169 m; draft 9.3 m.

Type: Tanker. MMSI: 538006808.

Date/timePositionNaut miles runAvg speedWind from/ knotsBaromVisibWave heightAir tempDewpointWater temp
2018-Feb-04 14:37N 01°13' E 103°30'214.4
2018-Feb-04 14:29N 01°13' E 103°32'612.8
2018-Feb-04 14:00N 01°12' E 103°38'4 7.9
2018-Feb-04 13:30N 01°12' E 103°41'1 1.0
2018-Feb-04 12:58N 01°12' E 103°42'0 0.1
2018-Feb-04 12:28N 01°12' E 103°42'0 0.0
2018-Feb-04 09:58N 01°12' E 103°42'0 0.0
2018-Feb-04 08:58N 01°12' E 103°42'0 0.1
2018-Feb-04 07:46N 01°12' E 103°42'0 0.0
2018-Feb-04 07:25N 01°12' E 103°42'0 0.0
2018-Feb-04 06:55N 01°12' E 103°42'0 0.0
2018-Feb-04 06:25N 01°12' E 103°42'0 0.0
2018-Feb-04 05:55N 01°12' E 103°42'0 0.1
2018-Feb-04 05:25N 01°12' E 103°42'0 0.1
2018-Feb-04 04:58N 01°12' E 103°42'0 0.0
2018-Feb-04 04:16N 01°12' E 103°42'0 0.1
2018-Feb-04 03:55N 01°12' E 103°42'0 0.0
2018-Feb-04 03:28N 01°12' E 103°42'0 0.0
2018-Feb-04 02:58N 01°12' E 103°42'0 0.0
2018-Feb-04 02:28N 01°12' E 103°42'0 0.0
2018-Feb-04 01:58N 01°12' E 103°42'0 0.0
2018-Feb-04 01:28N 01°12' E 103°42'0 0.0
2018-Feb-04 00:58N 01°12' E 103°42'0 0.0
2018-Feb-04 00:28N 01°12' E 103°42'0 0.0
2018-Feb-03 23:58N 01°12' E 103°42'0 0.1
2018-Feb-03 23:28N 01°12' E 103°42'0 0.0
2018-Feb-03 22:58N 01°12' E 103°42'0 0.5
2018-Feb-03 22:30N 01°11' E 103°42'2 3.2
2018-Feb-03 22:00N 01°11' E 103°40'0 0.4
2018-Feb-03 21:30N 01°11' E 103°40'3 5.8
2018-Feb-03 20:59N 01°09' E 103°43'3 5.6
2018-Feb-03 20:30N 01°09' E 103°45'4 8.0
2018-Feb-03 19:59N 01°11' E 103°49'12 8.0
2018-Feb-03 18:29N 01°16' E 104°00'5 8.9
2018-Feb-03 17:59N 01°16' E 104°05'  

Dump ship's entire track history